sensor_id;sensor_type;location;lat;lon;timestamp;temperature;humidity
23143;DHT22;11740;51.168;4.112;2022-12-29T00:00:06;10.40;99.90
23143;DHT22;11740;51.168;4.112;2022-12-29T00:02:34;10.40;99.90
23143;DHT22;11740;51.168;4.112;2022-12-29T00:05:01;10.40;99.90
23143;DHT22;11740;51.168;4.112;2022-12-29T00:07:28;10.40;99.90
23143;DHT22;11740;51.168;4.112;2022-12-29T00:09:55;10.40;99.90
23143;DHT22;11740;51.168;4.112;2022-12-29T00:12:22;10.40;99.90
23143;DHT22;11740;51.168;4.112;2022-12-29T00:14:48;10.50;99.90
23143;DHT22;11740;51.168;4.112;2022-12-29T00:17:34;10.50;99.90
23143;DHT22;11740;51.168;4.112;2022-12-29T00:20:01;10.60;67.00
23143;DHT22;11740;51.168;4.112;2022-12-29T00:22:46;10.60;7.60
23143;DHT22;11740;51.168;4.112;2022-12-29T00:25:32;10.50;1.00
23143;DHT22;11740;51.168;4.112;2022-12-29T00:28:18;10.60;1.00
23143;DHT22;11740;51.168;4.112;2022-12-29T00:31:03;10.60;1.00
23143;DHT22;11740;51.168;4.112;2022-12-29T00:33:52;10.70;1.00
23143;DHT22;11740;51.168;4.112;2022-12-29T00:36:39;10.70;99.90
23143;DHT22;11740;51.168;4.112;2022-12-29T00:39:07;10.80;99.90
23143;DHT22;11740;51.168;4.112;2022-12-29T00:41:55;10.80;99.90
23143;DHT22;11740;51.168;4.112;2022-12-29T00:44:40;10.80;65.70
23143;DHT22;11740;51.168;4.112;2022-12-29T00:47:07;10.80;1.00
23143;DHT22;11740;51.168;4.112;2022-12-29T00:49:34;10.90;1.00
23143;DHT22;11740;51.168;4.112;2022-12-29T00:52:06;10.80;1.00
23143;DHT22;11740;51.168;4.112;2022-12-29T00:54:34;10.80;1.00
23143;DHT22;11740;51.168;4.112;2022-12-29T00:57:03;10.80;1.00
23143;DHT22;11740;51.168;4.112;2022-12-29T00:59:31;10.80;99.90
23143;DHT22;11740;51.168;4.112;2022-12-29T01:01:58;10.90;99.90
23143;DHT22;11740;51.168;4.112;2022-12-29T01:04:25;10.80;99.90
23143;DHT22;11740;51.168;4.112;2022-12-29T01:06:52;10.90;92.10
23143;DHT22;11740;51.168;4.112;2022-12-29T01:09:20;10.90;1.00
23143;DHT22;11740;51.168;4.112;2022-12-29T01:12:06;11.00;1.00
23143;DHT22;11740;51.168;4.112;2022-12-29T01:14:33;10.90;1.00
23143;DHT22;11740;51.168;4.112;2022-12-29T01:17:00;10.90;1.00
23143;DHT22;11740;51.168;4.112;2022-12-29T01:19:27;10.80;1.00
23143;DHT22;11740;51.168;4.112;2022-12-29T01:21:54;10.90;1.00
23143;DHT22;11740;51.168;4.112;2022-12-29T01:24:21;10.90;1.00
23143;DHT22;11740;51.168;4.112;2022-12-29T01:26:48;10.90;1.00
23143;DHT22;11740;51.168;4.112;2022-12-29T01:29:15;10.90;1.00
23143;DHT22;11740;51.168;4.112;2022-12-29T01:31:43;11.00;99.90
23143;DHT22;11740;51.168;4.112;2022-12-29T01:34:10;11.00;99.90
23143;DHT22;11740;51.168;4.112;2022-12-29T01:36:37;11.00;99.90
23143;DHT22;11740;51.168;4.112;2022-12-29T01:39:04;11.00;99.90
23143;DHT22;11740;51.168;4.112;2022-12-29T01:41:33;11.00;99.90
23143;DHT22;11740;51.168;4.112;2022-12-29T01:44:00;11.00;1.00
23143;DHT22;11740;51.168;4.112;2022-12-29T01:51:53;10.90;1.00
23143;DHT22;11740;51.168;4.112;2022-12-29T01:54:39;10.90;1.00
23143;DHT22;11740;51.168;4.112;2022-12-29T01:57:10;10.90;7.20
23143;DHT22;11740;51.168;4.112;2022-12-29T01:59:41;10.80;99.90
23143;DHT22;11740;51.168;4.112;2022-12-29T02:02:12;10.80;99.90
23143;DHT22;11740;51.168;4.112;2022-12-29T02:04:40;10.80;99.90
23143;DHT22;11740;51.168;4.112;2022-12-29T02:07:13;10.80;87.90
23143;DHT22;11740;51.168;4.112;2022-12-29T02:09:46;10.90;1.00
23143;DHT22;11740;51.168;4.112;2022-12-29T02:12:14;10.80;71.40
23143;DHT22;11740;51.168;4.112;2022-12-29T02:14:43;10.80;32.70
23143;DHT22;11740;51.168;4.112;2022-12-29T02:19:58;10.80;1.00
23143;DHT22;11740;51.168;4.112;2022-12-29T02:31:59;10.70;60.20
23143;DHT22;11740;51.168;4.112;2022-12-29T02:37:24;10.70;72.60
23143;DHT22;11740;51.168;4.112;2022-12-29T02:43:01;10.70;99.90
23143;DHT22;11740;51.168;4.112;2022-12-29T02:45:32;10.60;99.90
23143;DHT22;11740;51.168;4.112;2022-12-29T02:48:29;10.70;32.90
23143;DHT22;11740;51.168;4.112;2022-12-29T02:51:03;10.70;47.50
23143;DHT22;11740;51.168;4.112;2022-12-29T02:53:33;10.60;27.60
23143;DHT22;11740;51.168;4.112;2022-12-29T02:56:20;10.60;19.10
23143;DHT22;11740;51.168;4.112;2022-12-29T02:58:47;10.60;83.90
23143;DHT22;11740;51.168;4.112;2022-12-29T03:06:44;10.60;50.10
23143;DHT22;11740;51.168;4.112;2022-12-29T03:12:10;10.50;92.90
23143;DHT22;11740;51.168;4.112;2022-12-29T03:14:58;10.50;58.50
23143;DHT22;11740;51.168;4.112;2022-12-29T03:20:42;10.50;1.00
23143;DHT22;11740;51.168;4.112;2022-12-29T03:23:16;10.50;1.00
23143;DHT22;11740;51.168;4.112;2022-12-29T03:25:45;10.40;1.00
23143;DHT22;11740;51.168;4.112;2022-12-29T03:28:24;10.40;1.00
23143;DHT22;11740;51.168;4.112;2022-12-29T03:30:55;10.40;1.00
23143;DHT22;11740;51.168;4.112;2022-12-29T03:33:25;10.50;1.00
23143;DHT22;11740;51.168;4.112;2022-12-29T03:35:54;10.40;1.00
23143;DHT22;11740;51.168;4.112;2022-12-29T03:38:29;10.40;99.90
23143;DHT22;11740;51.168;4.112;2022-12-29T03:41:00;10.40;99.90
23143;DHT22;11740;51.168;4.112;2022-12-29T03:43:31;10.30;99.90
23143;DHT22;11740;51.168;4.112;2022-12-29T03:45:58;10.40;44.00
23143;DHT22;11740;51.168;4.112;2022-12-29T03:48:25;10.30;52.80
23143;DHT22;11740;51.168;4.112;2022-12-29T03:50:52;10.30;99.90
23143;DHT22;11740;51.168;4.112;2022-12-29T03:53:19;10.30;99.90
23143;DHT22;11740;51.168;4.112;2022-12-29T03:55:46;10.20;99.90
23143;DHT22;11740;51.168;4.112;2022-12-29T03:58:13;10.20;99.90
23143;DHT22;11740;51.168;4.112;2022-12-29T04:00:39;10.20;99.90
23143;DHT22;11740;51.168;4.112;2022-12-29T04:03:06;10.20;99.90
23143;DHT22;11740;51.168;4.112;2022-12-29T04:05:33;10.20;80.70
23143;DHT22;11740;51.168;4.112;2022-12-29T04:08:00;10.10;1.00
23143;DHT22;11740;51.168;4.112;2022-12-29T04:10:27;10.10;1.00
23143;DHT22;11740;51.168;4.112;2022-12-29T04:12:54;10.10;1.00
23143;DHT22;11740;51.168;4.112;2022-12-29T04:15:20;10.10;1.00
23143;DHT22;11740;51.168;4.112;2022-12-29T04:17:47;10.10;1.00
23143;DHT22;11740;51.168;4.112;2022-12-29T04:20:14;10.10;1.00
23143;DHT22;11740;51.168;4.112;2022-12-29T04:23:00;10.10;1.00
23143;DHT22;11740;51.168;4.112;2022-12-29T04:25:28;10.10;1.00
23143;DHT22;11740;51.168;4.112;2022-12-29T04:27:54;10.10;1.00
23143;DHT22;11740;51.168;4.112;2022-12-29T04:30:21;10.10;1.00
23143;DHT22;11740;51.168;4.112;2022-12-29T04:32:48;10.10;1.00
23143;DHT22;11740;51.168;4.112;2022-12-29T04:35:15;10.10;1.00
23143;DHT22;11740;51.168;4.112;2022-12-29T04:37:43;10.10;1.00
23143;DHT22;11740;51.168;4.112;2022-12-29T04:40:10;10.10;1.00
23143;DHT22;11740;51.168;4.112;2022-12-29T04:42:38;10.10;1.00
23143;DHT22;11740;51.168;4.112;2022-12-29T04:45:05;10.10;1.00
23143;DHT22;11740;51.168;4.112;2022-12-29T04:47:32;10.10;99.90
23143;DHT22;11740;51.168;4.112;2022-12-29T04:50:00;10.00;99.90
23143;DHT22;11740;51.168;4.112;2022-12-29T04:52:26;10.00;99.90
23143;DHT22;11740;51.168;4.112;2022-12-29T04:54:53;9.90;99.90
23143;DHT22;11740;51.168;4.112;2022-12-29T04:57:20;9.90;99.90
23143;DHT22;11740;51.168;4.112;2022-12-29T04:59:47;9.90;99.90
23143;DHT22;11740;51.168;4.112;2022-12-29T05:02:14;9.90;99.90
23143;DHT22;11740;51.168;4.112;2022-12-29T05:04:44;9.90;99.90
23143;DHT22;11740;51.168;4.112;2022-12-29T05:07:10;9.90;99.90
23143;DHT22;11740;51.168;4.112;2022-12-29T05:09:37;10.00;99.90
23143;DHT22;11740;51.168;4.112;2022-12-29T05:12:04;10.00;99.90
23143;DHT22;11740;51.168;4.112;2022-12-29T05:14:31;10.00;99.90
23143;DHT22;11740;51.168;4.112;2022-12-29T05:16:58;10.00;99.90
23143;DHT22;11740;51.168;4.112;2022-12-29T05:19:25;10.00;99.90
23143;DHT22;11740;51.168;4.112;2022-12-29T05:21:52;9.90;99.90
23143;DHT22;11740;51.168;4.112;2022-12-29T05:24:19;10.00;99.90
23143;DHT22;11740;51.168;4.112;2022-12-29T05:26:46;10.00;99.90
23143;DHT22;11740;51.168;4.112;2022-12-29T05:29:13;10.00;99.90
23143;DHT22;11740;51.168;4.112;2022-12-29T05:31:40;10.00;99.90
23143;DHT22;11740;51.168;4.112;2022-12-29T05:34:06;9.90;99.90
23143;DHT22;11740;51.168;4.112;2022-12-29T05:36:33;9.90;99.90
23143;DHT22;11740;51.168;4.112;2022-12-29T05:39:03;9.90;99.90
23143;DHT22;11740;51.168;4.112;2022-12-29T05:41:30;9.90;99.90
23143;DHT22;11740;51.168;4.112;2022-12-29T05:43:57;9.90;99.90
23143;DHT22;11740;51.168;4.112;2022-12-29T05:46:24;9.90;99.90
23143;DHT22;11740;51.168;4.112;2022-12-29T05:48:51;9.90;99.90
23143;DHT22;11740;51.168;4.112;2022-12-29T05:51:18;9.90;99.90
23143;DHT22;11740;51.168;4.112;2022-12-29T05:53:44;9.90;99.90
23143;DHT22;11740;51.168;4.112;2022-12-29T05:56:11;9.90;99.90
23143;DHT22;11740;51.168;4.112;2022-12-29T05:58:38;9.90;1.00
23143;DHT22;11740;51.168;4.112;2022-12-29T06:01:05;9.90;1.00
23143;DHT22;11740;51.168;4.112;2022-12-29T06:03:32;10.00;99.90
23143;DHT22;11740;51.168;4.112;2022-12-29T06:05:59;10.00;99.90
23143;DHT22;11740;51.168;4.112;2022-12-29T06:08:26;10.00;99.90
23143;DHT22;11740;51.168;4.112;2022-12-29T06:10:53;9.90;99.90
23143;DHT22;11740;51.168;4.112;2022-12-29T06:13:20;9.90;99.90
23143;DHT22;11740;51.168;4.112;2022-12-29T06:15:49;9.90;99.90
23143;DHT22;11740;51.168;4.112;2022-12-29T06:18:16;9.90;95.70
23143;DHT22;11740;51.168;4.112;2022-12-29T06:20:46;9.90;99.90
23143;DHT22;11740;51.168;4.112;2022-12-29T06:23:12;9.90;1.00
23143;DHT22;11740;51.168;4.112;2022-12-29T06:25:39;9.90;1.00
23143;DHT22;11740;51.168;4.112;2022-12-29T06:28:06;9.90;1.00
23143;DHT22;11740;51.168;4.112;2022-12-29T06:30:33;9.90;1.00
23143;DHT22;11740;51.168;4.112;2022-12-29T06:33:00;9.90;1.00
23143;DHT22;11740;51.168;4.112;2022-12-29T06:35:27;9.90;1.00
23143;DHT22;11740;51.168;4.112;2022-12-29T06:37:54;9.90;1.00
23143;DHT22;11740;51.168;4.112;2022-12-29T06:40:20;9.90;1.00
23143;DHT22;11740;51.168;4.112;2022-12-29T06:42:48;9.90;1.00
23143;DHT22;11740;51.168;4.112;2022-12-29T06:45:15;9.80;1.00
23143;DHT22;11740;51.168;4.112;2022-12-29T06:47:42;9.90;99.90
23143;DHT22;11740;51.168;4.112;2022-12-29T06:50:09;9.80;1.00
23143;DHT22;11740;51.168;4.112;2022-12-29T06:52:36;9.90;1.00
23143;DHT22;11740;51.168;4.112;2022-12-29T06:55:03;9.80;1.00
23143;DHT22;11740;51.168;4.112;2022-12-29T06:57:30;9.90;1.00
23143;DHT22;11740;51.168;4.112;2022-12-29T06:59:57;9.80;99.90
23143;DHT22;11740;51.168;4.112;2022-12-29T07:02:24;9.80;1.00
23143;DHT22;11740;51.168;4.112;2022-12-29T07:04:53;9.80;1.00
23143;DHT22;11740;51.168;4.112;2022-12-29T07:07:20;9.70;1.00
23143;DHT22;11740;51.168;4.112;2022-12-29T07:09:47;9.70;1.00
23143;DHT22;11740;51.168;4.112;2022-12-29T07:12:14;9.70;1.00
23143;DHT22;11740;51.168;4.112;2022-12-29T07:14:41;9.70;1.00
23143;DHT22;11740;51.168;4.112;2022-12-29T07:17:09;9.70;1.00
23143;DHT22;11740;51.168;4.112;2022-12-29T07:19:36;9.70;99.90
23143;DHT22;11740;51.168;4.112;2022-12-29T07:22:03;9.70;99.90
23143;DHT22;11740;51.168;4.112;2022-12-29T07:24:29;9.60;99.90
23143;DHT22;11740;51.168;4.112;2022-12-29T07:26:56;9.70;42.00
23143;DHT22;11740;51.168;4.112;2022-12-29T07:29:23;9.70;1.00
23143;DHT22;11740;51.168;4.112;2022-12-29T07:31:50;9.70;1.00
23143;DHT22;11740;51.168;4.112;2022-12-29T07:34:17;9.80;1.00
23143;DHT22;11740;51.168;4.112;2022-12-29T07:36:44;9.80;1.00
23143;DHT22;11740;51.168;4.112;2022-12-29T07:39:11;9.70;1.00
23143;DHT22;11740;51.168;4.112;2022-12-29T07:41:38;9.70;1.00
23143;DHT22;11740;51.168;4.112;2022-12-29T07:44:05;9.70;1.00
23143;DHT22;11740;51.168;4.112;2022-12-29T07:46:32;9.80;1.00
23143;DHT22;11740;51.168;4.112;2022-12-29T07:49:19;9.80;1.00
23143;DHT22;11740;51.168;4.112;2022-12-29T07:51:46;9.80;1.00
23143;DHT22;11740;51.168;4.112;2022-12-29T07:54:13;9.80;1.00
23143;DHT22;11740;51.168;4.112;2022-12-29T07:56:40;9.80;1.00
23143;DHT22;11740;51.168;4.112;2022-12-29T07:59:07;9.80;99.90
23143;DHT22;11740;51.168;4.112;2022-12-29T08:01:34;9.80;99.90
23143;DHT22;11740;51.168;4.112;2022-12-29T08:04:01;9.80;99.90
23143;DHT22;11740;51.168;4.112;2022-12-29T08:06:28;9.80;99.90
23143;DHT22;11740;51.168;4.112;2022-12-29T08:08:57;9.80;99.90
23143;DHT22;11740;51.168;4.112;2022-12-29T08:11:29;9.80;99.90
23143;DHT22;11740;51.168;4.112;2022-12-29T08:13:56;9.80;99.90
23143;DHT22;11740;51.168;4.112;2022-12-29T08:16:23;9.80;99.90
23143;DHT22;11740;51.168;4.112;2022-12-29T08:18:50;9.80;99.90
23143;DHT22;11740;51.168;4.112;2022-12-29T08:21:16;9.80;1.00
23143;DHT22;11740;51.168;4.112;2022-12-29T08:23:43;9.70;1.00
23143;DHT22;11740;51.168;4.112;2022-12-29T08:26:10;9.70;1.00
23143;DHT22;11740;51.168;4.112;2022-12-29T08:28:38;9.70;1.00
23143;DHT22;11740;51.168;4.112;2022-12-29T08:31:04;9.60;99.90
23143;DHT22;11740;51.168;4.112;2022-12-29T08:33:31;9.60;76.60
23143;DHT22;11740;51.168;4.112;2022-12-29T08:36:02;9.60;99.90
23143;DHT22;11740;51.168;4.112;2022-12-29T08:38:30;9.60;99.90
23143;DHT22;11740;51.168;4.112;2022-12-29T08:40:58;9.50;1.00
23143;DHT22;11740;51.168;4.112;2022-12-29T08:43:27;9.50;1.00
23143;DHT22;11740;51.168;4.112;2022-12-29T08:45:54;9.50;1.00
23143;DHT22;11740;51.168;4.112;2022-12-29T08:48:22;9.40;99.90
23143;DHT22;11740;51.168;4.112;2022-12-29T08:50:49;9.20;1.00
23143;DHT22;11740;51.168;4.112;2022-12-29T08:53:17;9.10;99.90
23143;DHT22;11740;51.168;4.112;2022-12-29T08:55:45;9.10;1.00
23143;DHT22;11740;51.168;4.112;2022-12-29T08:58:13;9.10;1.00
23143;DHT22;11740;51.168;4.112;2022-12-29T09:00:41;9.10;1.00
23143;DHT22;11740;51.168;4.112;2022-12-29T09:03:08;9.10;99.90
23143;DHT22;11740;51.168;4.112;2022-12-29T09:05:36;9.10;31.40
23143;DHT22;11740;51.168;4.112;2022-12-29T09:08:03;9.10;30.90
23143;DHT22;11740;51.168;4.112;2022-12-29T09:10:31;9.20;1.00
23143;DHT22;11740;51.168;4.112;2022-12-29T09:12:58;9.10;46.60
23143;DHT22;11740;51.168;4.112;2022-12-29T09:15:25;9.10;99.90
23143;DHT22;11740;51.168;4.112;2022-12-29T09:17:52;9.10;99.90
23143;DHT22;11740;51.168;4.112;2022-12-29T09:20:19;9.00;1.00
23143;DHT22;11740;51.168;4.112;2022-12-29T09:22:46;9.00;1.00
23143;DHT22;11740;51.168;4.112;2022-12-29T09:25:14;9.00;1.00
23143;DHT22;11740;51.168;4.112;2022-12-29T09:27:41;9.00;35.70
23143;DHT22;11740;51.168;4.112;2022-12-29T09:30:09;9.00;1.00
23143;DHT22;11740;51.168;4.112;2022-12-29T09:32:38;8.90;1.00
23143;DHT22;11740;51.168;4.112;2022-12-29T09:35:11;8.90;1.00
23143;DHT22;11740;51.168;4.112;2022-12-29T09:37:38;8.90;1.00
23143;DHT22;11740;51.168;4.112;2022-12-29T09:40:05;9.00;1.00
23143;DHT22;11740;51.168;4.112;2022-12-29T09:42:50;9.00;1.00
23143;DHT22;11740;51.168;4.112;2022-12-29T09:48:32;9.00;99.90
23143;DHT22;11740;51.168;4.112;2022-12-29T09:51:03;9.00;1.00
23143;DHT22;11740;51.168;4.112;2022-12-29T09:53:36;9.00;1.00
23143;DHT22;11740;51.168;4.112;2022-12-29T09:56:05;9.00;1.00
23143;DHT22;11740;51.168;4.112;2022-12-29T09:58:44;9.10;1.00
23143;DHT22;11740;51.168;4.112;2022-12-29T10:01:16;9.10;1.00
23143;DHT22;11740;51.168;4.112;2022-12-29T10:04:03;9.20;99.90
23143;DHT22;11740;51.168;4.112;2022-12-29T10:12:11;9.30;1.00
23143;DHT22;11740;51.168;4.112;2022-12-29T10:26:32;9.20;1.00
23143;DHT22;11740;51.168;4.112;2022-12-29T10:29:08;9.10;1.00
23143;DHT22;11740;51.168;4.112;2022-12-29T10:32:01;9.10;1.00
23143;DHT22;11740;51.168;4.112;2022-12-29T10:34:34;9.10;99.90
23143;DHT22;11740;51.168;4.112;2022-12-29T10:37:21;9.10;99.90
23143;DHT22;11740;51.168;4.112;2022-12-29T10:39:59;9.10;99.90
23143;DHT22;11740;51.168;4.112;2022-12-29T10:42:40;9.20;99.90
23143;DHT22;11740;51.168;4.112;2022-12-29T10:45:13;9.20;99.90
23143;DHT22;11740;51.168;4.112;2022-12-29T10:47:47;9.20;99.90
23143;DHT22;11740;51.168;4.112;2022-12-29T10:50:18;9.20;99.90
23143;DHT22;11740;51.168;4.112;2022-12-29T10:52:46;9.30;68.20
23143;DHT22;11740;51.168;4.112;2022-12-29T10:55:15;9.40;99.90
23143;DHT22;11740;51.168;4.112;2022-12-29T10:57:48;9.50;17.00
23143;DHT22;11740;51.168;4.112;2022-12-29T11:00:17;9.50;1.00
23143;DHT22;11740;51.168;4.112;2022-12-29T11:05:45;9.50;1.00
23143;DHT22;11740;51.168;4.112;2022-12-29T11:08:17;9.50;99.90
23143;DHT22;11740;51.168;4.112;2022-12-29T11:10:46;9.50;99.90
23143;DHT22;11740;51.168;4.112;2022-12-29T11:13:34;9.60;99.90
23143;DHT22;11740;51.168;4.112;2022-12-29T11:16:05;9.60;1.00
23143;DHT22;11740;51.168;4.112;2022-12-29T11:18:36;9.60;1.00
23143;DHT22;11740;51.168;4.112;2022-12-29T11:21:07;9.60;1.00
23143;DHT22;11740;51.168;4.112;2022-12-29T11:23:57;9.70;1.00
23143;DHT22;11740;51.168;4.112;2022-12-29T11:26:26;9.60;1.00
23143;DHT22;11740;51.168;4.112;2022-12-29T11:31:56;9.60;1.00
23143;DHT22;11740;51.168;4.112;2022-12-29T11:34:26;9.60;1.00
23143;DHT22;11740;51.168;4.112;2022-12-29T11:36:58;9.60;1.00
23143;DHT22;11740;51.168;4.112;2022-12-29T11:39:29;9.70;1.00
23143;DHT22;11740;51.168;4.112;2022-12-29T11:41:57;9.70;99.90
23143;DHT22;11740;51.168;4.112;2022-12-29T11:44:24;9.70;1.00
23143;DHT22;11740;51.168;4.112;2022-12-29T11:46:53;9.70;1.00
23143;DHT22;11740;51.168;4.112;2022-12-29T11:49:22;9.70;1.00
23143;DHT22;11740;51.168;4.112;2022-12-29T11:51:50;9.70;1.00
23143;DHT22;11740;51.168;4.112;2022-12-29T11:54:19;9.70;1.00
23143;DHT22;11740;51.168;4.112;2022-12-29T11:56:48;9.70;1.00
23143;DHT22;11740;51.168;4.112;2022-12-29T12:01:58;9.70;1.00
23143;DHT22;11740;51.168;4.112;2022-12-29T12:04:29;9.70;1.00
23143;DHT22;11740;51.168;4.112;2022-12-29T12:09:56;9.70;99.90
23143;DHT22;11740;51.168;4.112;2022-12-29T12:12:34;9.60;1.00
23143;DHT22;11740;51.168;4.112;2022-12-29T12:15:04;9.50;99.90
23143;DHT22;11740;51.168;4.112;2022-12-29T12:17:55;9.50;99.90
23143;DHT22;11740;51.168;4.112;2022-12-29T12:20:47;9.50;99.90
23143;DHT22;11740;51.168;4.112;2022-12-29T12:26:12;9.40;1.00
23143;DHT22;11740;51.168;4.112;2022-12-29T12:31:21;9.40;1.00
23143;DHT22;11740;51.168;4.112;2022-12-29T12:33:50;9.40;1.00
23143;DHT22;11740;51.168;4.112;2022-12-29T12:53:46;9.40;1.00
23143;DHT22;11740;51.168;4.112;2022-12-29T12:59:17;9.50;99.90
23143;DHT22;11740;51.168;4.112;2022-12-29T13:04:39;9.60;1.00
23143;DHT22;11740;51.168;4.112;2022-12-29T13:12:55;9.60;1.00
23143;DHT22;11740;51.168;4.112;2022-12-29T13:21:00;9.50;1.00
23143;DHT22;11740;51.168;4.112;2022-12-29T13:23:42;9.50;1.00
23143;DHT22;11740;51.168;4.112;2022-12-29T13:26:23;9.40;1.00
23143;DHT22;11740;51.168;4.112;2022-12-29T13:29:13;9.40;1.00
23143;DHT22;11740;51.168;4.112;2022-12-29T13:37:13;9.40;1.00
23143;DHT22;11740;51.168;4.112;2022-12-29T13:39:45;9.40;1.00
23143;DHT22;11740;51.168;4.112;2022-12-29T13:42:15;9.40;1.00
23143;DHT22;11740;51.168;4.112;2022-12-29T13:44:44;9.40;1.00
23143;DHT22;11740;51.168;4.112;2022-12-29T13:47:55;9.40;1.00
23143;DHT22;11740;51.168;4.112;2022-12-29T13:50:27;9.40;1.00
23143;DHT22;11740;51.168;4.112;2022-12-29T13:55:48;9.30;1.00
23143;DHT22;11740;51.168;4.112;2022-12-29T14:03:58;9.30;99.90
23143;DHT22;11740;51.168;4.112;2022-12-29T14:06:29;9.20;1.00
23143;DHT22;11740;51.168;4.112;2022-12-29T14:14:11;9.20;99.90
23143;DHT22;11740;51.168;4.112;2022-12-29T14:16:41;9.10;1.00
23143;DHT22;11740;51.168;4.112;2022-12-29T14:19:11;9.10;1.00
23143;DHT22;11740;51.168;4.112;2022-12-29T14:21:40;9.10;1.00
23143;DHT22;11740;51.168;4.112;2022-12-29T14:26:53;9.10;99.90
23143;DHT22;11740;51.168;4.112;2022-12-29T14:31:52;9.00;1.00
23143;DHT22;11740;51.168;4.112;2022-12-29T14:39:30;9.00;1.00
23143;DHT22;11740;51.168;4.112;2022-12-29T14:42:05;8.90;1.00
23143;DHT22;11740;51.168;4.112;2022-12-29T14:44:49;8.90;1.00
23143;DHT22;11740;51.168;4.112;2022-12-29T14:49:53;8.90;1.00
23143;DHT22;11740;51.168;4.112;2022-12-29T14:52:22;8.90;1.00
23143;DHT22;11740;51.168;4.112;2022-12-29T14:54:55;8.90;1.00
23143;DHT22;11740;51.168;4.112;2022-12-29T15:00:16;8.80;1.00
23143;DHT22;11740;51.168;4.112;2022-12-29T15:03:02;8.80;1.00
23143;DHT22;11740;51.168;4.112;2022-12-29T15:05:52;8.70;99.90
23143;DHT22;11740;51.168;4.112;2022-12-29T15:08:21;8.70;1.00
23143;DHT22;11740;51.168;4.112;2022-12-29T15:10:56;8.70;99.90
23143;DHT22;11740;51.168;4.112;2022-12-29T15:13:34;8.70;99.90
23143;DHT22;11740;51.168;4.112;2022-12-29T15:16:02;8.70;99.90
23143;DHT22;11740;51.168;4.112;2022-12-29T15:18:33;8.70;99.90
23143;DHT22;11740;51.168;4.112;2022-12-29T15:21:01;8.60;7.70
23143;DHT22;11740;51.168;4.112;2022-12-29T15:23:30;8.60;99.90
23143;DHT22;11740;51.168;4.112;2022-12-29T15:26:07;8.60;99.90
23143;DHT22;11740;51.168;4.112;2022-12-29T15:28:45;8.60;83.20
23143;DHT22;11740;51.168;4.112;2022-12-29T15:34:09;8.70;61.70
23143;DHT22;11740;51.168;4.112;2022-12-29T15:36:38;8.60;99.90
23143;DHT22;11740;51.168;4.112;2022-12-29T15:44:50;8.60;99.90
23143;DHT22;11740;51.168;4.112;2022-12-29T15:47:29;8.60;99.90
23143;DHT22;11740;51.168;4.112;2022-12-29T15:50:06;8.60;99.90
23143;DHT22;11740;51.168;4.112;2022-12-29T15:52:39;8.60;99.90
23143;DHT22;11740;51.168;4.112;2022-12-29T15:55:09;8.60;99.90
23143;DHT22;11740;51.168;4.112;2022-12-29T15:57:46;8.50;99.90
23143;DHT22;11740;51.168;4.112;2022-12-29T16:00:29;8.50;99.90
23143;DHT22;11740;51.168;4.112;2022-12-29T16:02:58;8.50;99.90
23143;DHT22;11740;51.168;4.112;2022-12-29T16:05:34;8.40;99.90
23143;DHT22;11740;51.168;4.112;2022-12-29T16:08:02;8.40;99.90
23143;DHT22;11740;51.168;4.112;2022-12-29T16:10:36;8.30;90.40
23143;DHT22;11740;51.168;4.112;2022-12-29T16:15:46;8.30;99.90
23143;DHT22;11740;51.168;4.112;2022-12-29T16:18:23;8.30;99.90
23143;DHT22;11740;51.168;4.112;2022-12-29T16:20:52;8.20;79.40
23143;DHT22;11740;51.168;4.112;2022-12-29T16:23:24;8.20;99.90
23143;DHT22;11740;51.168;4.112;2022-12-29T16:25:52;8.10;99.90
23143;DHT22;11740;51.168;4.112;2022-12-29T16:28:34;8.10;99.90
23143;DHT22;11740;51.168;4.112;2022-12-29T16:31:19;8.10;99.90
23143;DHT22;11740;51.168;4.112;2022-12-29T16:36:29;8.10;99.90
23143;DHT22;11740;51.168;4.112;2022-12-29T16:39:04;8.00;1.00
23143;DHT22;11740;51.168;4.112;2022-12-29T16:41:52;8.00;1.00
23143;DHT22;11740;51.168;4.112;2022-12-29T16:44:27;8.00;1.00
23143;DHT22;11740;51.168;4.112;2022-12-29T16:47:03;7.90;1.00
23143;DHT22;11740;51.168;4.112;2022-12-29T16:49:31;7.90;1.00
23143;DHT22;11740;51.168;4.112;2022-12-29T16:51:58;7.90;1.00
23143;DHT22;11740;51.168;4.112;2022-12-29T16:54:33;7.80;1.00
23143;DHT22;11740;51.168;4.112;2022-12-29T16:57:01;7.90;1.00
23143;DHT22;11740;51.168;4.112;2022-12-29T16:59:35;7.80;1.00
23143;DHT22;11740;51.168;4.112;2022-12-29T17:02:14;7.80;1.00
23143;DHT22;11740;51.168;4.112;2022-12-29T17:04:43;7.80;1.00
23143;DHT22;11740;51.168;4.112;2022-12-29T17:07:15;7.80;1.00
23143;DHT22;11740;51.168;4.112;2022-12-29T17:09:44;7.80;1.00
23143;DHT22;11740;51.168;4.112;2022-12-29T17:12:13;7.80;1.00
23143;DHT22;11740;51.168;4.112;2022-12-29T17:14:53;7.70;49.20
23143;DHT22;11740;51.168;4.112;2022-12-29T17:20:06;7.70;99.90
23143;DHT22;11740;51.168;4.112;2022-12-29T17:22:42;7.70;99.90
23143;DHT22;11740;51.168;4.112;2022-12-29T17:25:13;7.70;99.90
23143;DHT22;11740;51.168;4.112;2022-12-29T17:30:19;7.60;99.90
23143;DHT22;11740;51.168;4.112;2022-12-29T17:33:04;7.70;85.80
23143;DHT22;11740;51.168;4.112;2022-12-29T17:35:34;7.60;99.90
23143;DHT22;11740;51.168;4.112;2022-12-29T17:38:01;7.70;44.10
23143;DHT22;11740;51.168;4.112;2022-12-29T17:40:31;7.60;99.90
23143;DHT22;11740;51.168;4.112;2022-12-29T17:42:59;7.60;99.90
23143;DHT22;11740;51.168;4.112;2022-12-29T17:45:29;7.60;99.90
23143;DHT22;11740;51.168;4.112;2022-12-29T17:47:57;7.60;99.90
23143;DHT22;11740;51.168;4.112;2022-12-29T17:50:28;7.60;99.90
23143;DHT22;11740;51.168;4.112;2022-12-29T17:52:57;7.60;99.90
23143;DHT22;11740;51.168;4.112;2022-12-29T17:55:27;7.60;99.90
23143;DHT22;11740;51.168;4.112;2022-12-29T17:58:23;7.60;99.90
23143;DHT22;11740;51.168;4.112;2022-12-29T18:00:52;7.50;99.90
23143;DHT22;11740;51.168;4.112;2022-12-29T18:03:25;7.50;99.90
23143;DHT22;11740;51.168;4.112;2022-12-29T18:05:54;7.50;99.90
23143;DHT22;11740;51.168;4.112;2022-12-29T18:08:21;7.50;99.90
23143;DHT22;11740;51.168;4.112;2022-12-29T18:10:52;7.50;99.90
23143;DHT22;11740;51.168;4.112;2022-12-29T18:13:24;7.50;99.90
23143;DHT22;11740;51.168;4.112;2022-12-29T18:16:07;7.50;99.90
23143;DHT22;11740;51.168;4.112;2022-12-29T18:18:36;7.50;99.90
23143;DHT22;11740;51.168;4.112;2022-12-29T18:21:03;7.50;99.90
23143;DHT22;11740;51.168;4.112;2022-12-29T18:23:31;7.60;1.00
23143;DHT22;11740;51.168;4.112;2022-12-29T18:26:04;7.50;1.00
23143;DHT22;11740;51.168;4.112;2022-12-29T18:28:33;7.50;1.00
23143;DHT22;11740;51.168;4.112;2022-12-29T18:31:00;7.50;1.00
23143;DHT22;11740;51.168;4.112;2022-12-29T18:33:28;7.50;1.00
23143;DHT22;11740;51.168;4.112;2022-12-29T18:35:56;7.50;1.00
23143;DHT22;11740;51.168;4.112;2022-12-29T18:38:25;7.50;1.00
23143;DHT22;11740;51.168;4.112;2022-12-29T18:40:52;7.50;1.00
23143;DHT22;11740;51.168;4.112;2022-12-29T18:43:19;7.50;99.90
23143;DHT22;11740;51.168;4.112;2022-12-29T18:45:46;7.50;99.90
23143;DHT22;11740;51.168;4.112;2022-12-29T18:48:14;7.50;99.90
23143;DHT22;11740;51.168;4.112;2022-12-29T18:50:42;7.50;99.90
23143;DHT22;11740;51.168;4.112;2022-12-29T18:53:16;7.40;99.90